createdAt,value
2022-08-16T00:01:33.688Z,97.43
2022-08-16T00:04:05.194Z,97.40
2022-08-16T00:06:33.856Z,97.59
2022-08-16T00:09:05.459Z,97.44
2022-08-16T00:11:34.942Z,97.48
2022-08-16T00:14:08.661Z,97.25
2022-08-16T00:17:01.375Z,97.25
2022-08-16T00:19:41.554Z,97.28
2022-08-16T00:22:13.570Z,97.12
2022-08-16T00:24:50.115Z,97.10
2022-08-16T00:27:19.973Z,97.15
2022-08-16T00:30:08.604Z,97.08
2022-08-16T00:32:39.236Z,97.02
2022-08-16T00:35:15.514Z,97.17
2022-08-16T00:37:56.700Z,97.00
2022-08-16T00:40:43.676Z,96.99
2022-08-16T00:43:24.055Z,96.83
2022-08-16T00:46:34.243Z,96.60
2022-08-16T00:49:17.243Z,96.50
2022-08-16T00:51:55.079Z,96.46
2022-08-16T00:54:29.831Z,96.35
2022-08-16T00:57:05.538Z,96.38
2022-08-16T00:59:50.731Z,96.19
2022-08-16T01:02:31.619Z,96.20
2022-08-16T01:05:10.980Z,96.18
2022-08-16T01:07:51.739Z,96.19
2022-08-16T01:10:32.416Z,96.25
2022-08-16T01:13:09.022Z,96.41
2022-08-16T01:15:45.574Z,96.70
2022-08-16T01:18:40.377Z,96.96
2022-08-16T01:21:33.495Z,97.37
2022-08-16T01:24:53.210Z,97.81
2022-08-16T01:27:18.670Z,97.92
2022-08-16T01:30:01.972Z,98.11
2022-08-16T01:32:36.222Z,98.26
2022-08-16T01:35:16.753Z,98.45
2022-08-16T01:37:52.989Z,98.55
2022-08-16T01:40:27.105Z,98.80
2022-08-16T01:42:56.276Z,99.05
2022-08-16T01:45:24.668Z,99.29
2022-08-16T01:48:19.191Z,99.46
2022-08-16T01:51:09.506Z,99.62
2022-08-16T01:53:41.330Z,99.76
2022-08-16T01:56:23.428Z,100.00
2022-08-16T01:58:59.770Z,100.00
2022-08-16T02:01:29.188Z,100.00
2022-08-16T02:04:10.266Z,100.00
2022-08-16T02:06:46.921Z,100.00
2022-08-16T02:09:19.614Z,100.00
2022-08-16T02:11:54.318Z,100.00
2022-08-16T02:14:27.335Z,100.00
2022-08-16T02:16:58.540Z,100.00
2022-08-16T02:19:58.702Z,100.00
2022-08-16T02:22:34.603Z,100.00
2022-08-16T02:25:23.408Z,100.00
2022-08-16T02:27:51.814Z,100.00
2022-08-16T02:30:36.666Z,100.00
2022-08-16T02:33:15.477Z,100.00
2022-08-16T02:35:53.691Z,100.00
2022-08-16T02:38:24.157Z,100.00
2022-08-16T02:40:54.343Z,100.00
2022-08-16T02:43:26.914Z,100.00
2022-08-16T02:45:57.399Z,100.00
2022-08-16T02:48:30.837Z,100.00
2022-08-16T02:51:06.477Z,100.00
2022-08-16T02:53:43.568Z,100.00
2022-08-16T02:56:14.962Z,100.00
2022-08-16T02:58:46.321Z,100.00
2022-08-16T03:01:25.463Z,100.00
2022-08-16T03:04:46.455Z,100.00
2022-08-16T03:06:57.497Z,100.00
2022-08-16T03:09:28.833Z,100.00
2022-08-16T03:12:02.552Z,100.00
2022-08-16T03:14:31.628Z,100.00
2022-08-16T03:17:01.858Z,100.00
2022-08-16T03:19:47.443Z,100.00
2022-08-16T03:22:28.150Z,100.00
2022-08-16T03:25:01.235Z,100.00
2022-08-16T03:27:32.279Z,100.00
2022-08-16T03:30:17.353Z,100.00
2022-08-16T03:32:51.251Z,100.00
2022-08-16T03:35:32.446Z,100.00
2022-08-16T03:38:05.053Z,100.00
2022-08-16T03:40:54.570Z,100.00
2022-08-16T03:43:24.508Z,100.00
2022-08-16T03:46:13.670Z,100.00
2022-08-16T03:49:02.204Z,100.00
2022-08-16T03:51:30.438Z,100.00
2022-08-16T03:54:01.288Z,100.00
2022-08-16T03:56:30.544Z,100.00
2022-08-16T03:58:59.661Z,100.00
2022-08-16T04:01:29.952Z,100.00
2022-08-16T04:03:58.258Z,100.00
2022-08-16T04:06:30.732Z,100.00
2022-08-16T04:08:58.706Z,100.00
2022-08-16T04:11:26.664Z,100.00
2022-08-16T04:14:08.582Z,100.00
2022-08-16T04:16:53.529Z,100.00
2022-08-16T04:19:21.627Z,100.00
2022-08-16T04:21:49.850Z,100.00
2022-08-16T04:24:17.610Z,100.00
2022-08-16T04:26:45.990Z,100.00
2022-08-16T04:29:23.297Z,100.00
2022-08-16T04:31:56.576Z,100.00
2022-08-16T04:34:31.179Z,100.00
2022-08-16T04:37:01.928Z,100.00
2022-08-16T04:39:44.905Z,100.00
2022-08-16T04:42:26.013Z,100.00
2022-08-16T04:44:58.617Z,100.00
2022-08-16T04:47:35.443Z,100.00
2022-08-16T04:50:14.459Z,100.00
2022-08-16T04:52:46.203Z,100.00
2022-08-16T04:55:20.965Z,100.00
2022-08-16T04:58:00.425Z,100.00
2022-08-16T05:00:34.514Z,100.00
2022-08-16T05:03:07.382Z,100.00
2022-08-16T05:05:44.832Z,100.00
2022-08-16T05:08:30.484Z,100.00
2022-08-16T05:11:03.480Z,99.88
2022-08-16T05:13:41.311Z,99.32
2022-08-16T05:16:32.256Z,98.51
2022-08-16T05:19:05.364Z,97.79
2022-08-16T05:21:39.931Z,96.88
2022-08-16T05:24:08.957Z,96.21
2022-08-16T05:26:40.858Z,95.55
2022-08-16T05:29:15.254Z,94.77
2022-08-16T05:31:48.027Z,94.17
2022-08-16T05:34:20.355Z,93.63
2022-08-16T05:36:53.548Z,93.31
2022-08-16T05:39:22.450Z,93.23
2022-08-16T05:41:52.389Z,93.04
2022-08-16T05:44:25.224Z,92.48
2022-08-16T05:46:56.718Z,92.10
2022-08-16T05:49:39.510Z,91.67
2022-08-16T05:52:10.679Z,91.56
2022-08-16T05:54:46.775Z,90.52
2022-08-16T05:57:18.762Z,89.70
2022-08-16T05:59:50.640Z,88.92
2022-08-16T06:02:33.966Z,89.02
2022-08-16T06:05:03.771Z,89.49
2022-08-16T06:07:32.436Z,89.83
2022-08-16T06:10:02.271Z,89.67
2022-08-16T06:12:31.431Z,89.46
2022-08-16T06:15:04.299Z,88.43
2022-08-16T06:17:42.438Z,87.12
2022-08-16T06:20:24.266Z,85.64
2022-08-16T06:23:03.254Z,81.72
2022-08-16T06:25:35.770Z,78.92
2022-08-16T06:28:17.010Z,77.92
2022-08-16T06:30:59.125Z,76.54
2022-08-16T06:33:29.957Z,78.29
2022-08-16T06:36:14.239Z,78.44
2022-08-16T06:38:55.855Z,78.15
2022-08-16T06:41:27.273Z,77.85
2022-08-16T06:43:57.566Z,76.42
2022-08-16T06:46:34.559Z,74.81
2022-08-16T06:49:05.765Z,74.50
2022-08-16T06:51:48.333Z,74.76
2022-08-16T06:54:17.747Z,72.72
2022-08-16T06:56:46.192Z,72.72
2022-08-16T06:59:14.498Z,72.60
2022-08-16T07:01:52.088Z,70.76
2022-08-16T07:04:33.261Z,70.08
2022-08-16T07:07:09.895Z,70.79
2022-08-16T07:09:39.518Z,69.71
2022-08-16T07:12:08.518Z,70.98
2022-08-16T07:14:36.576Z,71.12
2022-08-16T07:17:11.567Z,70.90
2022-08-16T07:20:03.153Z,70.75
2022-08-16T07:22:38.848Z,69.86
2022-08-16T07:25:10.506Z,68.46
2022-08-16T07:27:41.401Z,67.62
2022-08-16T07:30:38.060Z,64.99
2022-08-16T07:33:02.525Z,63.42
2022-08-16T07:35:31.110Z,61.58
2022-08-16T07:38:00.001Z,60.45
2022-08-16T07:40:49.559Z,59.22
2022-08-16T07:43:16.655Z,58.53
2022-08-16T07:45:47.222Z,57.48
2022-08-16T07:48:22.261Z,56.37
2022-08-16T07:50:56.310Z,56.98
2022-08-16T07:53:30.038Z,56.84
2022-08-16T07:56:00.726Z,56.24
2022-08-16T07:58:33.779Z,56.06
2022-08-16T08:01:10.699Z,56.11
2022-08-16T08:03:48.404Z,55.11
2022-08-16T08:06:19.806Z,54.65
2022-08-16T08:08:49.240Z,54.75
2022-08-16T08:11:18.346Z,53.16
2022-08-16T08:13:46.609Z,50.97
2022-08-16T08:16:18.343Z,47.66
2022-08-16T08:18:50.111Z,46.16
2022-08-16T08:21:19.573Z,47.39
2022-08-16T08:23:57.256Z,45.75
2022-08-16T08:26:25.456Z,43.85
2022-08-16T08:28:53.506Z,42.34
2022-08-16T08:31:29.579Z,44.17
2022-08-16T08:34:00.115Z,45.97
2022-08-16T08:36:34.244Z,44.98
2022-08-16T08:39:13.138Z,44.55
2022-08-16T08:41:43.619Z,44.18
2022-08-16T08:44:28.815Z,44.04
2022-08-16T08:47:11.081Z,46.34
2022-08-16T08:49:50.386Z,47.41
2022-08-16T08:52:34.583Z,48.04
2022-08-16T08:55:09.078Z,48.71
2022-08-16T08:57:47.839Z,49.61
2022-08-16T09:00:21.285Z,50.45
2022-08-16T09:03:07.912Z,51.31
2022-08-16T09:05:38.373Z,53.32
2022-08-16T09:08:07.409Z,54.04
2022-08-16T09:10:39.549Z,53.52
2022-08-16T09:13:10.684Z,53.93
2022-08-16T09:15:40.106Z,54.18
2022-08-16T09:18:25.263Z,54.98
2022-08-16T09:20:58.371Z,55.65
2022-08-16T09:23:36.409Z,57.14
2022-08-16T09:26:44.167Z,57.49
2022-08-16T09:29:15.121Z,57.43
2022-08-16T09:31:44.128Z,57.94
2022-08-16T09:34:18.632Z,58.46
2022-08-16T09:36:47.669Z,59.19
2022-08-16T09:39:16.653Z,59.59
2022-08-16T09:41:53.941Z,59.96
2022-08-16T09:45:11.627Z,60.09
2022-08-16T09:47:13.250Z,60.08
2022-08-16T09:49:41.383Z,59.73
2022-08-16T09:52:10.619Z,59.88
2022-08-16T09:54:44.505Z,60.16
2022-08-16T09:57:15.006Z,59.88
2022-08-16T09:59:43.297Z,59.31
2022-08-16T10:02:23.034Z,59.88
2022-08-16T10:04:58.747Z,60.05
2022-08-16T10:07:44.350Z,58.45
2022-08-16T10:10:18.697Z,57.93
2022-08-16T10:13:16.267Z,58.51
2022-08-16T10:15:55.531Z,58.98
2022-08-16T10:18:56.598Z,58.66
2022-08-16T10:21:18.395Z,58.29
2022-08-16T10:23:48.869Z,58.26
2022-08-16T10:27:18.381Z,58.60
2022-08-16T10:29:09.022Z,58.23
2022-08-16T10:31:44.227Z,58.06
2022-08-16T10:34:31.130Z,58.71
2022-08-16T10:37:02.339Z,58.66
2022-08-16T10:39:41.118Z,57.73
2022-08-16T10:42:13.275Z,56.78
2022-08-16T10:44:42.311Z,57.88
2022-08-16T10:47:11.974Z,56.42
2022-08-16T10:49:39.914Z,56.95
2022-08-16T10:52:18.393Z,57.32
2022-08-16T10:57:35.422Z,56.98
2022-08-16T11:00:21.391Z,56.65
2022-08-16T11:02:58.461Z,58.28
2022-08-16T11:05:59.097Z,59.94
2022-08-16T11:08:31.188Z,61.51
2022-08-16T11:11:11.799Z,61.46
2022-08-16T11:14:11.207Z,60.81
2022-08-16T11:19:26.245Z,62.18
2022-08-16T11:22:39.367Z,62.56
2022-08-16T11:24:45.453Z,62.03
2022-08-16T11:27:35.855Z,62.60
2022-08-16T11:30:09.106Z,62.91
2022-08-16T11:32:38.190Z,63.09
2022-08-16T11:35:14.781Z,62.60
2022-08-16T11:40:52.673Z,63.69
2022-08-16T11:43:26.439Z,63.59
2022-08-16T11:45:57.017Z,63.81
2022-08-16T11:48:38.668Z,63.75
2022-08-16T11:51:07.459Z,63.19
2022-08-16T11:53:36.070Z,62.56
2022-08-16T11:56:06.269Z,62.69
2022-08-16T11:58:34.990Z,62.63
2022-08-16T12:01:03.120Z,62.48
2022-08-16T12:03:34.428Z,61.73
2022-08-16T12:06:24.560Z,60.71
2022-08-16T12:09:01.006Z,60.52
2022-08-16T12:11:32.104Z,60.92
2022-08-16T12:14:04.516Z,61.03
2022-08-16T12:16:34.970Z,60.06
2022-08-16T12:19:10.729Z,60.56
2022-08-16T12:21:58.665Z,60.70
2022-08-16T12:24:30.090Z,60.59
2022-08-16T12:27:00.027Z,60.64
2022-08-16T12:29:30.205Z,61.36
2022-08-16T12:32:01.556Z,61.05
2022-08-16T12:34:47.923Z,60.85
2022-08-16T12:37:19.675Z,61.22
2022-08-16T12:39:51.041Z,60.71
2022-08-16T12:42:20.670Z,61.07
2022-08-16T12:44:50.199Z,61.24
2022-08-16T12:47:38.130Z,58.95
2022-08-16T12:50:10.598Z,58.16
2022-08-16T12:52:44.407Z,56.76
2022-08-16T12:55:24.231Z,56.83
2022-08-16T12:58:01.813Z,54.15
2022-08-16T13:00:33.447Z,51.81
2022-08-16T13:03:03.655Z,47.77
2022-08-16T13:08:00.815Z,46.45
2022-08-16T13:10:37.646Z,47.89
2022-08-16T13:13:09.335Z,49.03
2022-08-16T13:15:55.971Z,49.78
2022-08-16T13:18:34.755Z,50.08
2022-08-16T13:21:07.058Z,51.39
2022-08-16T13:23:36.951Z,51.94
2022-08-16T13:26:17.818Z,51.36
2022-08-16T13:28:47.864Z,51.87
2022-08-16T13:31:17.032Z,51.94
2022-08-16T13:33:45.504Z,51.94
2022-08-16T13:36:32.196Z,50.82
2022-08-16T13:39:03.885Z,50.25
2022-08-16T13:41:32.650Z,50.76
2022-08-16T13:44:00.991Z,49.92
2022-08-16T13:46:32.605Z,48.25
2022-08-16T13:49:00.924Z,46.33
2022-08-16T13:51:30.614Z,43.87
2022-08-16T13:54:04.483Z,43.34
2022-08-16T13:56:37.432Z,42.01
2022-08-16T13:59:14.347Z,41.30
2022-08-16T14:01:54.662Z,41.47
2022-08-16T14:04:29.256Z,42.31
2022-08-16T14:06:59.205Z,41.84
2022-08-16T14:09:29.413Z,41.30
2022-08-16T14:12:00.884Z,40.17
2022-08-16T14:14:30.292Z,39.70
2022-08-16T14:17:05.006Z,39.01
2022-08-16T14:19:45.017Z,37.87
2022-08-16T14:22:30.439Z,37.26
2022-08-16T14:25:00.735Z,37.17
2022-08-16T14:27:31.176Z,36.73
2022-08-16T14:30:01.398Z,36.36
2022-08-16T14:32:33.442Z,36.27
2022-08-16T14:35:07.446Z,36.21
2022-08-16T14:37:36.486Z,35.84
2022-08-16T14:40:07.584Z,35.42
2022-08-16T14:42:36.749Z,34.82
2022-08-16T14:45:09.154Z,33.69
2022-08-16T14:47:38.530Z,33.16
2022-08-16T14:50:10.164Z,33.12
2022-08-16T14:52:56.399Z,32.29
2022-08-16T14:55:29.239Z,31.98
2022-08-16T14:57:58.469Z,31.43
2022-08-16T15:00:36.451Z,30.96
2022-08-16T15:03:09.751Z,30.73
2022-08-16T15:05:40.740Z,29.56
2022-08-16T15:08:10.451Z,29.72
2022-08-16T15:10:42.737Z,29.65
2022-08-16T15:13:15.098Z,29.68
2022-08-16T15:15:44.132Z,29.78
2022-08-16T15:18:23.433Z,29.14
2022-08-16T15:20:57.769Z,29.15
2022-08-16T15:23:28.625Z,29.08
2022-08-16T15:26:02.923Z,28.99
2022-08-16T15:28:37.314Z,28.51
2022-08-16T15:31:10.005Z,28.44
2022-08-16T15:33:51.090Z,28.70
2022-08-16T15:36:27.201Z,28.91
2022-08-16T15:39:05.781Z,28.97
2022-08-16T15:41:46.860Z,28.68
2022-08-16T15:44:22.637Z,28.55
2022-08-16T15:46:54.593Z,28.78
2022-08-16T15:49:38.676Z,28.92
2022-08-16T15:52:20.471Z,29.12
2022-08-16T15:54:53.001Z,29.12
2022-08-16T15:57:28.536Z,29.53
2022-08-16T16:00:15.406Z,29.96
2022-08-16T16:02:45.478Z,29.86
2022-08-16T16:05:14.631Z,30.26
2022-08-16T16:07:55.911Z,30.68
2022-08-16T16:10:29.379Z,32.03
2022-08-16T16:13:00.954Z,32.51
2022-08-16T16:15:33.317Z,33.54
2022-08-16T16:18:09.533Z,34.60
2022-08-16T16:20:47.357Z,36.51
2022-08-16T16:23:23.502Z,37.49
2022-08-16T16:25:55.020Z,37.02
2022-08-16T16:29:05.479Z,37.63
2022-08-16T16:31:18.638Z,38.35
2022-08-16T16:33:51.504Z,39.30
2022-08-16T16:36:24.313Z,42.08
2022-08-16T16:38:56.630Z,43.60
2022-08-16T16:41:28.396Z,45.42
2022-08-16T16:44:01.297Z,46.76
2022-08-16T16:46:43.039Z,47.72
2022-08-16T16:49:13.963Z,48.75
2022-08-16T16:51:44.472Z,49.61
2022-08-16T16:54:13.379Z,50.11
2022-08-16T16:56:59.594Z,50.95
2022-08-16T16:59:28.433Z,52.18
2022-08-16T17:02:38.529Z,52.87
2022-08-16T17:04:48.550Z,53.70
2022-08-16T17:07:18.049Z,54.44
2022-08-16T17:09:54.059Z,55.83
2022-08-16T17:12:24.891Z,56.70
2022-08-16T17:14:55.309Z,57.71
2022-08-16T17:17:24.382Z,59.19
2022-08-16T17:19:52.553Z,59.60
2022-08-16T17:22:23.364Z,59.73
2022-08-16T17:24:53.564Z,60.22
2022-08-16T17:27:33.676Z,60.45
2022-08-16T17:30:20.181Z,60.72
2022-08-16T17:33:05.670Z,60.81
2022-08-16T17:35:37.085Z,61.35
2022-08-16T17:38:09.172Z,62.06
2022-08-16T17:40:47.771Z,62.94
2022-08-16T17:43:36.057Z,64.99
2022-08-16T17:46:06.438Z,65.47
2022-08-16T17:48:54.894Z,66.64
2022-08-16T17:51:28.875Z,67.45
2022-08-16T17:53:57.478Z,68.33
2022-08-16T17:56:25.530Z,68.74
2022-08-16T17:58:53.424Z,69.13
2022-08-16T18:01:26.777Z,69.54
2022-08-16T18:04:07.804Z,70.06
2022-08-16T18:06:41.157Z,70.42
2022-08-16T18:09:10.337Z,71.36
2022-08-16T18:11:40.699Z,72.30
2022-08-16T18:14:10.558Z,72.89
2022-08-16T18:16:41.004Z,72.93
2022-08-16T18:19:11.615Z,73.30
2022-08-16T18:21:59.878Z,73.20
2022-08-16T18:24:29.596Z,72.78
2022-08-16T18:27:25.632Z,72.49
2022-08-16T18:29:47.415Z,72.31
2022-08-16T18:32:22.003Z,72.27
2022-08-16T18:34:55.362Z,72.41
2022-08-16T18:37:24.750Z,72.69
2022-08-16T18:39:53.064Z,72.74
2022-08-16T18:42:21.316Z,72.96
2022-08-16T18:44:49.372Z,73.15
2022-08-16T18:47:17.359Z,73.47
2022-08-16T18:49:45.716Z,73.43
2022-08-16T18:52:25.057Z,73.33
2022-08-16T18:55:01.794Z,73.45
2022-08-16T18:57:31.538Z,73.42
2022-08-16T18:59:59.606Z,73.54
2022-08-16T19:02:56.806Z,73.94
2022-08-16T19:05:24.515Z,74.19
2022-08-16T19:07:52.596Z,74.23
2022-08-16T19:10:21.080Z,74.38
2022-08-16T19:12:49.298Z,74.28
2022-08-16T19:15:21.911Z,74.69
2022-08-16T19:17:50.201Z,74.68
2022-08-16T19:20:22.775Z,74.82
2022-08-16T19:23:05.233Z,74.90
2022-08-16T19:25:48.728Z,75.39
2022-08-16T19:28:51.734Z,75.94
2022-08-16T19:31:25.222Z,76.30
2022-08-16T19:33:57.020Z,76.38
2022-08-16T19:36:37.130Z,76.46
2022-08-16T19:39:11.737Z,76.70
2022-08-16T19:41:53.784Z,77.11
2022-08-16T19:44:23.662Z,77.32
2022-08-16T19:46:52.031Z,77.53
2022-08-16T19:49:20.207Z,77.79
2022-08-16T19:51:48.939Z,78.32
2022-08-16T19:54:18.099Z,78.71
2022-08-16T19:56:46.462Z,79.18
2022-08-16T19:59:20.529Z,79.64
2022-08-16T20:01:52.373Z,80.08
2022-08-16T20:04:22.872Z,80.45
2022-08-16T20:06:52.453Z,80.97
2022-08-16T20:09:23.918Z,81.39
2022-08-16T20:11:53.940Z,81.87
2022-08-16T20:14:25.338Z,82.33
2022-08-16T20:17:00.886Z,82.71
2022-08-16T20:19:36.040Z,82.93
2022-08-16T20:22:30.020Z,85.55
2022-08-16T20:25:07.509Z,85.95
2022-08-16T20:27:40.526Z,86.07
2022-08-16T20:30:11.294Z,86.20
2022-08-16T20:32:39.327Z,86.10
2022-08-16T20:35:10.679Z,85.93
2022-08-16T20:37:39.874Z,85.83
2022-08-16T20:40:28.441Z,86.13
2022-08-16T20:43:06.708Z,86.29
2022-08-16T20:45:36.541Z,86.51
2022-08-16T20:48:11.710Z,87.05
2022-08-16T20:50:39.902Z,87.56
2022-08-16T20:53:09.154Z,88.09
2022-08-16T20:55:40.606Z,88.27
2022-08-16T20:58:08.848Z,88.57
2022-08-16T21:00:37.359Z,88.96
2022-08-16T21:03:10.282Z,89.26
2022-08-16T21:05:38.717Z,89.45
2022-08-16T21:08:28.687Z,89.53
2022-08-16T21:10:56.826Z,89.89
2022-08-16T21:13:26.101Z,90.02
2022-08-16T21:15:54.452Z,90.55
2022-08-16T21:18:22.526Z,90.74
2022-08-16T21:20:50.796Z,91.02
2022-08-16T21:23:18.969Z,91.39
2022-08-16T21:25:54.819Z,91.58
2022-08-16T21:28:38.990Z,92.08
2022-08-16T21:31:13.430Z,92.30
2022-08-16T21:33:43.436Z,92.57
2022-08-16T21:36:12.721Z,92.56
2022-08-16T21:38:40.996Z,92.92
2022-08-16T21:41:12.077Z,92.99
2022-08-16T21:43:40.621Z,93.03
2022-08-16T21:46:09.202Z,93.33
2022-08-16T21:48:40.695Z,93.28
2022-08-16T21:51:13.264Z,93.44
2022-08-16T21:53:43.286Z,93.62
2022-08-16T21:56:12.715Z,93.83
2022-08-16T21:58:52.791Z,93.89
2022-08-16T22:01:23.355Z,94.22
2022-08-16T22:04:35.241Z,94.67
2022-08-16T22:06:42.507Z,94.72
2022-08-16T22:09:15.509Z,94.80
2022-08-16T22:11:44.493Z,95.03
2022-08-16T22:14:12.967Z,95.19
2022-08-16T22:16:42.217Z,95.58
2022-08-16T22:19:12.363Z,95.59
2022-08-16T22:21:40.868Z,96.02
2022-08-16T22:24:10.165Z,96.27
2022-08-16T22:26:43.061Z,96.41
2022-08-16T22:29:15.238Z,96.50
2022-08-16T22:31:44.618Z,96.67
2022-08-16T22:34:14.030Z,96.85
2022-08-16T22:36:43.012Z,96.75
2022-08-16T22:39:13.612Z,97.12
2022-08-16T22:41:45.851Z,97.35
2022-08-16T22:44:14.997Z,97.72
2022-08-16T22:46:44.659Z,98.01
2022-08-16T22:49:13.367Z,98.21
2022-08-16T22:51:42.535Z,98.25
2022-08-16T22:54:43.845Z,98.52
2022-08-16T22:56:59.461Z,98.50
2022-08-16T22:59:30.559Z,98.30
2022-08-16T23:02:02.589Z,98.25
2022-08-16T23:04:30.913Z,98.05
2022-08-16T23:06:59.085Z,98.01
2022-08-16T23:09:27.296Z,97.90
2022-08-16T23:11:55.542Z,97.88
2022-08-16T23:14:23.491Z,97.87
2022-08-16T23:16:51.461Z,97.79
2022-08-16T23:19:19.639Z,97.84
2022-08-16T23:21:49.150Z,98.00
2022-08-16T23:24:20.757Z,97.97
2022-08-16T23:26:49.454Z,98.21
2022-08-16T23:29:23.796Z,98.24
2022-08-16T23:31:56.568Z,98.32
2022-08-16T23:34:27.184Z,98.28
2022-08-16T23:36:56.464Z,98.44
2022-08-16T23:39:24.870Z,98.68
2022-08-16T23:41:53.163Z,98.67
2022-08-16T23:44:56.047Z,98.80
2022-08-16T23:47:10.100Z,98.84
2022-08-16T23:49:56.291Z,99.01
2022-08-16T23:52:53.248Z,98.97
2022-08-16T23:55:16.975Z,99.16
2022-08-16T23:57:46.790Z,99.19
